Time;durP1;ratioP1;P1;durP2;ratioP2;P2;SDS_P1;SDS_P2;PMS_P1;PMS_P2;Temp;Humidity;BMP_temperature;BMP_pressure;BME280_temperature;BME280_humidity;BME280_pressure;Samples;Min_cycle;Max_cycle;Signal;HPM_P1;HPM_P2
2021/07/14 00:00:20;;;;;;;;;;;14.10;99.90;;;;;;4931954;29;20017;-74
2021/07/14 00:02:53;;;;;;;;;;;14.00;99.90;;;;;;4915432;29;20047;-74
2021/07/14 00:05:25;;;;;;;;;;;14.00;99.90;;;;;;4933217;29;20382;-74
2021/07/14 00:07:57;;;;;;;;;;;13.90;99.90;;;;;;4933225;29;20210;-74
2021/07/14 00:10:25;;;;;;;;;;;13.80;99.90;;;;;;4933191;29;20022;-74
2021/07/14 00:23:41;;;;;;;;;;;13.40;99.90;;;;;;4933011;29;19930;-74
2021/07/14 00:26:07;;;;;;;;;;;13.40;99.90;;;;;;4933164;29;20394;-74
2021/07/14 00:28:40;;;;;;;;;;;13.40;99.90;;;;;;4936137;29;19934;-74
2021/07/14 00:31:14;;;;;;;;;;;13.40;99.90;;;;;;4936594;29;20386;-74
2021/07/14 00:33:42;;;;;;;;;;;13.30;99.90;;;;;;4936746;29;20412;-74
2021/07/14 00:36:08;;;;;;;;;;;13.30;99.90;;;;;;4936809;29;20033;-74
2021/07/14 00:38:40;;;;;;;;;;;13.30;99.90;;;;;;4921745;29;20399;-74
2021/07/14 00:41:07;;;;;;;;;;;13.30;99.90;;;;;;4936368;29;19962;-74
2021/07/14 00:43:34;;;;;;;;;;;13.30;99.90;;;;;;4921005;29;20017;-74
2021/07/14 00:46:16;;;;;;;;;;;13.20;99.90;;;;;;4936868;29;20025;-74
2021/07/14 00:48:48;;;;;;;;;;;13.20;99.90;;;;;;4936750;29;19927;-74
2021/07/14 00:51:16;;;;;;;;;;;13.10;99.90;;;;;;4936024;29;20465;-74
2021/07/14 00:53:42;;;;;;;;;;;13.10;99.90;;;;;;4937723;29;19973;-74
2021/07/14 00:56:14;;;;;;;;;;;13.20;99.90;;;;;;4936498;29;19998;-75
2021/07/14 00:58:41;;;;;;;;;;;13.20;99.90;;;;;;4936398;29;20033;-74
2021/07/14 01:01:08;;;;;;;;;;;13.20;99.90;;;;;;4935560;29;20029;-74
2021/07/14 01:03:44;;;;;;;;;;;13.20;99.90;;;;;;4935705;29;19933;-74
2021/07/14 01:06:15;;;;;;;;;;;13.20;99.90;;;;;;4935015;29;20037;-74
2021/07/14 01:09:02;;;;;;;;;;;13.20;99.90;;;;;;4920865;29;19943;-74
2021/07/14 01:11:31;;;;;;;;;;;13.20;99.90;;;;;;4919988;29;20049;-74
2021/07/14 01:14:08;;;;;;;;;;;13.20;99.90;;;;;;4920997;29;20513;-74
2021/07/14 01:16:39;;;;;;;;;;;13.20;99.90;;;;;;4937348;29;19961;-75
2021/07/14 01:19:28;;;;;;;;;;;13.20;99.90;;;;;;4936021;29;20464;-75
2021/07/14 01:22:04;;;;;;;;;;;13.20;99.90;;;;;;4936244;29;19930;-74
2021/07/14 01:24:50;;;;;;;;;;;13.20;99.90;;;;;;4935434;29;19932;-74
2021/07/14 01:27:22;;;;;;;;;;;13.30;99.90;;;;;;4935277;29;19927;-74
2021/07/14 01:29:55;;;;;;;;;;;13.30;99.90;;;;;;4935554;29;19966;-74
2021/07/14 01:32:26;;;;;;;;;;;13.30;99.90;;;;;;4919436;29;19933;-74
2021/07/14 01:35:00;;;;;;;;;;;13.30;99.90;;;;;;4920721;29;20030;-74
2021/07/14 01:37:33;;;;;;;;;;;13.20;99.90;;;;;;4935455;29;19926;-74
2021/07/14 01:40:01;;;;;;;;;;;13.10;99.90;;;;;;4935522;29;20386;-74
2021/07/14 01:42:29;;;;;;;;;;;13.10;99.90;;;;;;4934948;29;20370;-74
2021/07/14 01:44:57;;;;;;;;;;;13.00;99.90;;;;;;4935348;29;19935;-74
2021/07/14 01:47:24;;;;;;;;;;;13.00;99.90;;;;;;4935568;29;19931;-74
2021/07/14 01:49:52;;;;;;;;;;;12.90;99.90;;;;;;4935444;29;19974;-74
2021/07/14 01:52:26;;;;;;;;;;;12.90;99.90;;;;;;4936298;29;20577;-75
2021/07/14 01:54:53;;;;;;;;;;;13.00;99.90;;;;;;4936695;29;20018;-73
2021/07/14 01:57:30;;;;;;;;;;;13.00;99.90;;;;;;4920466;29;20412;-74
2021/07/14 02:00:04;;;;;;;;;;;13.10;99.90;;;;;;4935403;29;19927;-74
2021/07/14 02:02:48;;;;;;;;;;;13.00;99.90;;;;;;4935065;29;20283;-75
2021/07/14 02:05:15;;;;;;;;;;;13.00;99.90;;;;;;4935301;29;19927;-74
2021/07/14 02:07:42;;;;;;;;;;;13.10;99.90;;;;;;4935085;29;20013;-75
2021/07/14 02:10:09;;;;;;;;;;;13.10;99.90;;;;;;4936347;29;20372;-74
2021/07/14 02:12:37;;;;;;;;;;;13.20;99.90;;;;;;4934482;29;20026;-74
2021/07/14 02:15:06;;;;;;;;;;;13.20;99.90;;;;;;4934992;29;19978;-74
2021/07/14 02:17:48;;;;;;;;;;;13.20;99.90;;;;;;4934991;29;20029;-74
2021/07/14 02:20:20;;;;;;;;;;;13.20;99.90;;;;;;4935099;29;19927;-74
2021/07/14 02:22:52;;;;;;;;;;;13.20;99.90;;;;;;4934583;29;20374;-74
2021/07/14 02:25:24;;;;;;;;;;;13.20;99.90;;;;;;4934907;29;20017;-74
2021/07/14 02:27:55;;;;;;;;;;;13.20;99.90;;;;;;4919807;29;19933;-74
2021/07/14 02:30:23;;;;;;;;;;;13.10;99.90;;;;;;4936055;29;20026;-73
2021/07/14 02:32:55;;;;;;;;;;;13.00;99.90;;;;;;4919157;29;20286;-75
2021/07/14 02:35:28;;;;;;;;;;;13.00;99.90;;;;;;4935908;29;19933;-74
2021/07/14 02:38:36;;;;;;;;;;;12.90;99.90;;;;;;4934761;29;19974;-74
2021/07/14 02:41:14;;;;;;;;;;;12.80;99.90;;;;;;4860752;29;19928;-74
2021/07/14 02:43:44;;;;;;;;;;;12.80;99.90;;;;;;4927763;29;19926;-74
2021/07/14 02:46:13;;;;;;;;;;;12.70;99.90;;;;;;4918656;29;20013;-74
2021/07/14 02:48:45;;;;;;;;;;;12.70;99.90;;;;;;4919392;29;20096;-74
2021/07/14 02:51:17;;;;;;;;;;;12.70;99.90;;;;;;4934493;29;20022;-74
2021/07/14 02:53:49;;;;;;;;;;;12.70;99.90;;;;;;4918597;29;19958;-74
2021/07/14 02:56:19;;;;;;;;;;;12.80;99.90;;;;;;4935474;29;19927;-74
2021/07/14 02:58:55;;;;;;;;;;;12.80;99.90;;;;;;4934454;29;19974;-74
2021/07/14 03:01:22;;;;;;;;;;;12.80;99.90;;;;;;4933805;29;20396;-74
2021/07/14 03:03:54;;;;;;;;;;;12.90;99.90;;;;;;4935277;29;20034;-74
2021/07/14 03:06:21;;;;;;;;;;;12.90;99.90;;;;;;4918503;29;20029;-74
2021/07/14 03:09:02;;;;;;;;;;;12.90;99.90;;;;;;4935395;29;19933;-74
2021/07/14 03:11:37;;;;;;;;;;;13.00;99.90;;;;;;4933369;29;19977;-74
2021/07/14 03:14:11;;;;;;;;;;;13.00;99.90;;;;;;4934005;29;19927;-74
2021/07/14 03:16:43;;;;;;;;;;;13.10;99.90;;;;;;4935245;29;19937;-74
2021/07/14 03:19:11;;;;;;;;;;;13.00;99.90;;;;;;4935206;29;19954;-74
2021/07/14 03:21:43;;;;;;;;;;;13.00;99.90;;;;;;4918359;29;19933;-74
2021/07/14 03:24:15;;;;;;;;;;;13.00;99.90;;;;;;4918873;29;19930;-74
2021/07/14 03:26:46;;;;;;;;;;;13.00;99.90;;;;;;4934788;29;20018;-74
2021/07/14 03:29:13;;;;;;;;;;;13.10;99.90;;;;;;4933859;29;19927;-74
2021/07/14 03:31:40;;;;;;;;;;;13.10;99.90;;;;;;4933262;29;20018;-74
2021/07/14 03:34:07;;;;;;;;;;;13.10;99.90;;;;;;4933644;29;20029;-74
2021/07/14 03:36:33;;;;;;;;;;;13.10;99.90;;;;;;4917825;29;20030;-74
2021/07/14 03:39:06;;;;;;;;;;;13.10;99.90;;;;;;4918515;29;20033;-74
2021/07/14 03:41:38;;;;;;;;;;;13.20;99.90;;;;;;4932952;29;20427;-74
2021/07/14 03:44:10;;;;;;;;;;;13.10;99.90;;;;;;4934762;29;20382;-74
2021/07/14 03:46:43;;;;;;;;;;;13.20;99.90;;;;;;4934736;29;19931;-74
2021/07/14 03:49:12;;;;;;;;;;;13.20;99.90;;;;;;4933344;29;19927;-74
2021/07/14 03:51:40;;;;;;;;;;;13.10;99.90;;;;;;4932761;29;19977;-74
2021/07/14 03:54:07;;;;;;;;;;;13.10;99.90;;;;;;4933018;29;20033;-74
2021/07/14 03:56:39;;;;;;;;;;;13.00;99.90;;;;;;4933054;29;19962;-75
2021/07/14 03:59:06;;;;;;;;;;;12.90;99.90;;;;;;4932696;29;19978;-73
2021/07/14 04:01:33;;;;;;;;;;;12.90;99.90;;;;;;4916667;29;20103;-74
2021/07/14 04:04:00;;;;;;;;;;;12.90;99.90;;;;;;4932661;29;19927;-74
2021/07/14 04:06:34;;;;;;;;;;;12.90;99.90;;;;;;4937718;29;19927;-74
2021/07/14 04:09:15;;;;;;;;;;;12.80;99.90;;;;;;4918249;29;19986;-74
2021/07/14 04:11:48;;;;;;;;;;;12.80;99.90;;;;;;4933329;29;20017;-74
2021/07/14 04:14:19;;;;;;;;;;;12.90;99.90;;;;;;4917360;29;20022;-73
2021/07/14 04:16:52;;;;;;;;;;;12.90;99.90;;;;;;4931174;29;20053;-74
2021/07/14 04:19:24;;;;;;;;;;;12.90;99.90;;;;;;4920636;29;19935;-74
2021/07/14 04:21:51;;;;;;;;;;;12.80;99.90;;;;;;4932160;29;19974;-73
2021/07/14 04:24:18;;;;;;;;;;;12.80;99.90;;;;;;4919212;29;19933;-74
2021/07/14 04:26:49;;;;;;;;;;;12.80;99.90;;;;;;4913306;29;20019;-74
2021/07/14 04:29:21;;;;;;;;;;;12.80;99.90;;;;;;4913088;29;20368;-74
2021/07/14 04:31:53;;;;;;;;;;;12.80;99.90;;;;;;4914282;29;20394;-73
2021/07/14 04:34:24;;;;;;;;;;;12.80;99.90;;;;;;4913883;29;19928;-74
2021/07/14 04:36:51;;;;;;;;;;;12.80;99.90;;;;;;4913811;29;19927;-74
2021/07/14 04:39:18;;;;;;;;;;;12.80;99.90;;;;;;4913680;29;19983;-73
2021/07/14 04:41:45;;;;;;;;;;;12.90;99.90;;;;;;4914687;29;19989;-74
2021/07/14 04:44:14;;;;;;;;;;;12.90;99.90;;;;;;4915032;29;19987;-74
2021/07/14 04:46:40;;;;;;;;;;;12.90;99.90;;;;;;4914106;29;20358;-73
2021/07/14 04:49:14;;;;;;;;;;;13.00;99.90;;;;;;4913963;29;19933;-74
2021/07/14 04:51:41;;;;;;;;;;;13.10;99.90;;;;;;4914603;29;19966;-74
2021/07/14 04:54:07;;;;;;;;;;;13.10;99.90;;;;;;4912305;29;20339;-74
2021/07/14 04:56:39;;;;;;;;;;;13.10;99.90;;;;;;4919697;29;19933;-74
2021/07/14 04:59:11;;;;;;;;;;;13.20;99.90;;;;;;4929382;29;20407;-74
2021/07/14 05:01:43;;;;;;;;;;;13.20;99.90;;;;;;4915099;29;20022;-74
2021/07/14 05:04:15;;;;;;;;;;;13.20;99.90;;;;;;4913845;29;20025;-74
2021/07/14 05:06:42;;;;;;;;;;;13.30;99.90;;;;;;4913553;29;19963;-74
2021/07/14 05:09:13;;;;;;;;;;;13.30;99.90;;;;;;4914738;29;19927;-73
2021/07/14 05:11:40;;;;;;;;;;;13.40;99.90;;;;;;4914444;29;20017;-74
2021/07/14 05:14:07;;;;;;;;;;;13.40;99.90;;;;;;4899944;29;19963;-74
2021/07/14 05:16:33;;;;;;;;;;;13.50;99.90;;;;;;4917135;29;20420;-74
2021/07/14 05:19:06;;;;;;;;;;;13.60;99.90;;;;;;4918088;29;20035;-74
2021/07/14 05:21:37;;;;;;;;;;;13.60;99.90;;;;;;4917160;29;20115;-74
2021/07/14 05:24:04;;;;;;;;;;;13.60;99.90;;;;;;4917136;29;20454;-74
2021/07/14 05:26:36;;;;;;;;;;;13.60;99.90;;;;;;4902550;29;20026;-74
2021/07/14 05:29:08;;;;;;;;;;;13.60;99.90;;;;;;4917254;29;19970;-74
2021/07/14 05:31:40;;;;;;;;;;;13.60;99.90;;;;;;4929173;29;20019;-74
2021/07/14 05:34:06;;;;;;;;;;;13.60;99.90;;;;;;4918569;29;20422;-74
2021/07/14 05:36:33;;;;;;;;;;;13.70;99.90;;;;;;4917446;29;19927;-74
2021/07/14 05:39:05;;;;;;;;;;;13.70;99.90;;;;;;4953348;29;19930;-74
2021/07/14 05:41:32;;;;;;;;;;;13.70;99.90;;;;;;4948125;29;20016;-74
2021/07/14 05:44:04;;;;;;;;;;;13.70;99.90;;;;;;4916346;29;19927;-74
2021/07/14 05:46:36;;;;;;;;;;;13.70;99.90;;;;;;4915038;29;19931;-74
2021/07/14 05:49:03;;;;;;;;;;;13.70;99.90;;;;;;4915554;29;19983;-74
2021/07/14 05:51:34;;;;;;;;;;;13.70;99.90;;;;;;4930593;29;19962;-74
2021/07/14 05:54:01;;;;;;;;;;;13.70;99.90;;;;;;4930783;29;20445;-74
2021/07/14 05:56:33;;;;;;;;;;;13.70;99.90;;;;;;4916246;29;20205;-74
2021/07/14 05:59:05;;;;;;;;;;;13.70;99.90;;;;;;4929850;29;20600;-74
2021/07/14 06:01:31;;;;;;;;;;;13.70;99.90;;;;;;4930156;29;20460;-74
2021/07/14 06:03:59;;;;;;;;;;;13.70;99.90;;;;;;4914939;29;20018;-74
2021/07/14 06:06:32;;;;;;;;;;;13.70;99.90;;;;;;4929849;29;20310;-74
2021/07/14 06:08:59;;;;;;;;;;;13.80;99.90;;;;;;4930869;29;20353;-74
2021/07/14 06:11:30;;;;;;;;;;;13.80;99.90;;;;;;4915421;29;19981;-74
2021/07/14 06:14:02;;;;;;;;;;;13.70;99.90;;;;;;4915680;29;20481;-74
2021/07/14 06:16:29;;;;;;;;;;;13.80;99.90;;;;;;4949329;28;20390;-74
2021/07/14 06:19:01;;;;;;;;;;;13.80;99.90;;;;;;4931570;29;20297;-74
2021/07/14 06:21:33;;;;;;;;;;;13.90;99.90;;;;;;4935854;29;19974;-74
2021/07/14 06:24:05;;;;;;;;;;;14.00;99.90;;;;;;4943929;28;19938;-73
2021/07/14 06:26:32;;;;;;;;;;;14.10;99.90;;;;;;4953236;29;19933;-73
2021/07/14 06:28:59;;;;;;;;;;;14.20;99.90;;;;;;4954495;29;20018;-74
2021/07/14 06:31:26;;;;;;;;;;;14.30;99.90;;;;;;4953900;29;20025;-74
2021/07/14 06:33:53;;;;;;;;;;;14.40;99.90;;;;;;4969144;28;19988;-74
2021/07/14 06:36:19;;;;;;;;;;;14.50;99.90;;;;;;4954201;29;19926;-74
2021/07/14 06:38:51;;;;;;;;;;;14.50;99.90;;;;;;4907494;29;19962;-74
2021/07/14 06:41:19;;;;;;;;;;;14.60;99.90;;;;;;4933276;29;19966;-74
2021/07/14 06:43:50;;;;;;;;;;;14.60;99.90;;;;;;4933434;29;20309;-74
2021/07/14 06:46:19;;;;;;;;;;;14.60;99.90;;;;;;4933397;29;20378;-74
2021/07/14 06:48:50;;;;;;;;;;;14.70;99.90;;;;;;4934396;29;20026;-74
2021/07/14 06:51:22;;;;;;;;;;;14.70;99.90;;;;;;4933765;29;19969;-74
2021/07/14 06:53:54;;;;;;;;;;;14.70;99.90;;;;;;4918450;29;20033;-74
2021/07/14 06:56:25;;;;;;;;;;;14.70;99.90;;;;;;4934052;29;19933;-74
2021/07/14 06:58:52;;;;;;;;;;;14.80;99.90;;;;;;4933658;29;20434;-74
2021/07/14 07:01:24;;;;;;;;;;;14.70;99.90;;;;;;4932722;29;19927;-74
2021/07/14 07:03:55;;;;;;;;;;;14.80;99.90;;;;;;4933068;29;20305;-74
2021/07/14 07:06:28;;;;;;;;;;;14.90;99.90;;;;;;4917047;29;19935;-74
2021/07/14 07:08:55;;;;;;;;;;;15.00;99.90;;;;;;4917797;29;19962;-74
2021/07/14 07:11:27;;;;;;;;;;;15.00;99.90;;;;;;4932967;29;20029;-74
2021/07/14 07:13:58;;;;;;;;;;;15.10;99.90;;;;;;4933337;29;19980;-74
2021/07/14 07:16:30;;;;;;;;;;;15.20;99.90;;;;;;4918391;29;20499;-74
2021/07/14 07:19:02;;;;;;;;;;;15.30;99.90;;;;;;4918315;29;19931;-74
2021/07/14 07:21:31;;;;;;;;;;;15.40;99.90;;;;;;4916467;29;20287;-74
2021/07/14 07:24:03;;;;;;;;;;;15.50;99.90;;;;;;4926649;29;20389;-74
2021/07/14 07:26:35;;;;;;;;;;;15.60;99.90;;;;;;4932767;29;20014;-74
2021/07/14 07:29:05;;;;;;;;;;;15.70;99.90;;;;;;4933575;29;20070;-74
2021/07/14 07:31:32;;;;;;;;;;;15.90;99.90;;;;;;4932667;29;19927;-74
2021/07/14 07:34:04;;;;;;;;;;;15.90;99.90;;;;;;4933425;29;20382;-74
2021/07/14 07:36:36;;;;;;;;;;;16.00;99.90;;;;;;4917803;29;20025;-74
2021/07/14 07:39:08;;;;;;;;;;;16.10;99.90;;;;;;4933084;29;19930;-74
2021/07/14 07:41:40;;;;;;;;;;;16.10;99.90;;;;;;4932242;29;19927;-74
2021/07/14 07:44:11;;;;;;;;;;;16.20;99.90;;;;;;4917974;29;19926;-74
2021/07/14 07:46:40;;;;;;;;;;;16.20;99.90;;;;;;4932183;29;19931;-74
2021/07/14 07:49:07;;;;;;;;;;;16.20;99.90;;;;;;4933030;29;20014;-74
2021/07/14 07:51:39;;;;;;;;;;;16.20;99.90;;;;;;4932415;29;20030;-74
2021/07/14 07:54:06;;;;;;;;;;;16.20;99.90;;;;;;4932890;29;19982;-74
2021/07/14 07:56:38;;;;;;;;;;;16.20;99.90;;;;;;4918183;29;19927;-73
2021/07/14 07:59:05;;;;;;;;;;;16.10;99.90;;;;;;4917349;29;19965;-74
2021/07/14 08:01:37;;;;;;;;;;;16.10;99.90;;;;;;4931787;29;20326;-74
2021/07/14 08:04:04;;;;;;;;;;;16.00;99.90;;;;;;4933386;29;19931;-74
2021/07/14 08:06:31;;;;;;;;;;;15.90;99.90;;;;;;4933582;29;19958;-74
2021/07/14 08:09:03;;;;;;;;;;;15.80;99.90;;;;;;4934175;29;19969;-74
2021/07/14 08:11:35;;;;;;;;;;;15.90;99.90;;;;;;4933592;29;20033;-74
2021/07/14 08:14:07;;;;;;;;;;;15.90;99.90;;;;;;4917748;29;19979;-74
2021/07/14 08:16:33;;;;;;;;;;;16.00;99.90;;;;;;4932703;29;19926;-73
2021/07/14 08:19:00;;;;;;;;;;;16.10;99.90;;;;;;4932814;29;20410;-75
2021/07/14 08:21:32;;;;;;;;;;;16.20;99.90;;;;;;4932508;29;20351;-73
2021/07/14 08:24:04;;;;;;;;;;;16.20;99.90;;;;;;4930383;29;20017;-73
2021/07/14 08:26:36;;;;;;;;;;;16.30;99.90;;;;;;4931474;29;19970;-74
2021/07/14 08:29:07;;;;;;;;;;;16.40;99.90;;;;;;4932874;29;20085;-74
2021/07/14 08:31:40;;;;;;;;;;;16.50;99.90;;;;;;4933352;29;19927;-74
2021/07/14 08:34:12;;;;;;;;;;;16.50;99.90;;;;;;4932819;29;20010;-74
2021/07/14 08:36:44;;;;;;;;;;;16.50;99.90;;;;;;4933828;29;19930;-74
2021/07/14 08:39:15;;;;;;;;;;;16.60;99.90;;;;;;4933953;29;20025;-74
2021/07/14 08:41:48;;;;;;;;;;;16.70;99.90;;;;;;4933046;29;19927;-74
2021/07/14 08:44:20;;;;;;;;;;;16.60;99.90;;;;;;4927576;29;20373;-73
2021/07/14 08:46:53;;;;;;;;;;;16.60;99.90;;;;;;4933282;29;20033;-73
2021/07/14 08:49:25;;;;;;;;;;;16.70;99.90;;;;;;4935317;29;20368;-74
2021/07/14 08:51:57;;;;;;;;;;;16.70;99.90;;;;;;4935958;29;19966;-74
2021/07/14 08:54:29;;;;;;;;;;;16.70;99.90;;;;;;4936455;29;20021;-74
2021/07/14 08:57:00;;;;;;;;;;;16.90;99.90;;;;;;4937633;29;20513;-74
2021/07/14 08:59:32;;;;;;;;;;;16.90;99.90;;;;;;4937655;29;19933;-73
2021/07/14 09:02:04;;;;;;;;;;;17.00;99.90;;;;;;4935330;29;20029;-74
2021/07/14 09:04:36;;;;;;;;;;;17.00;99.90;;;;;;4937131;29;20014;-74
2021/07/14 09:07:08;;;;;;;;;;;17.10;99.90;;;;;;4937472;29;19998;-73
2021/07/14 09:09:41;;;;;;;;;;;17.20;99.90;;;;;;4938478;29;20009;-74
2021/07/14 09:12:13;;;;;;;;;;;17.20;99.90;;;;;;4921480;29;19927;-73
2021/07/14 09:14:47;;;;;;;;;;;17.30;99.90;;;;;;4939327;29;19934;-74
2021/07/14 09:17:25;;;;;;;;;;;17.20;99.90;;;;;;4936958;29;19933;-74
2021/07/14 09:20:09;;;;;;;;;;;17.20;99.90;;;;;;4937540;29;20034;-74
2021/07/14 09:22:41;;;;;;;;;;;17.20;99.90;;;;;;4935254;29;20369;-74
2021/07/14 09:25:09;;;;;;;;;;;17.10;99.90;;;;;;4935437;29;20010;-73
2021/07/14 09:28:03;;;;;;;;;;;17.00;99.90;;;;;;4936960;29;20383;-74
2021/07/14 09:30:36;;;;;;;;;;;16.90;99.90;;;;;;4937247;29;19933;-74
2021/07/14 09:33:10;;;;;;;;;;;16.80;99.90;;;;;;4936777;29;19937;-74
2021/07/14 09:35:46;;;;;;;;;;;17.00;99.90;;;;;;4935789;29;20006;-74
2021/07/14 09:38:22;;;;;;;;;;;17.10;99.90;;;;;;4936961;29;20029;-73
2021/07/14 09:40:55;;;;;;;;;;;17.20;99.90;;;;;;4935581;29;19926;-73
2021/07/14 09:43:28;;;;;;;;;;;17.50;99.90;;;;;;4936003;29;20025;-73
2021/07/14 09:46:13;;;;;;;;;;;17.80;99.90;;;;;;4934904;29;19927;-74
2021/07/14 09:48:46;;;;;;;;;;;18.00;99.90;;;;;;4935683;29;19933;-74
2021/07/14 09:51:19;;;;;;;;;;;18.30;99.90;;;;;;4935069;29;19986;-73
2021/07/14 09:53:52;;;;;;;;;;;18.40;99.90;;;;;;4936882;29;19927;-74
2021/07/14 09:56:27;;;;;;;;;;;18.60;99.90;;;;;;4935593;29;20396;-73
2021/07/14 09:59:04;;;;;;;;;;;18.60;99.90;;;;;;4935938;29;20381;-74
2021/07/14 10:01:38;;;;;;;;;;;18.50;99.90;;;;;;4935429;29;19927;-74
2021/07/14 10:04:12;;;;;;;;;;;18.50;99.90;;;;;;4934901;29;20349;-73
2021/07/14 10:06:44;;;;;;;;;;;18.40;99.90;;;;;;4934077;29;19927;-73
2021/07/14 10:09:22;;;;;;;;;;;18.40;99.90;;;;;;4933625;29;19958;-74
2021/07/14 10:11:49;;;;;;;;;;;18.30;99.90;;;;;;4935662;29;19969;-73
2021/07/14 10:14:28;;;;;;;;;;;18.30;99.90;;;;;;4920121;29;20034;-74
2021/07/14 10:16:54;;;;;;;;;;;18.20;99.90;;;;;;4936456;29;19992;-74
2021/07/14 10:19:21;;;;;;;;;;;18.30;99.90;;;;;;4935099;29;19954;-74
2021/07/14 10:21:48;;;;;;;;;;;18.30;99.90;;;;;;4935024;29;20029;-74
2021/07/14 10:24:20;;;;;;;;;;;18.40;99.90;;;;;;4935770;29;20018;-73
2021/07/14 10:26:53;;;;;;;;;;;18.50;99.90;;;;;;4918875;29;19978;-75
2021/07/14 10:29:26;;;;;;;;;;;18.50;99.90;;;;;;4935176;29;19931;-74
2021/07/14 10:31:58;;;;;;;;;;;18.60;99.90;;;;;;4933279;29;20021;-74
2021/07/14 10:34:30;;;;;;;;;;;18.60;99.90;;;;;;4927572;29;19927;-74
2021/07/14 10:36:57;;;;;;;;;;;18.70;99.90;;;;;;4951219;28;20025;-74
2021/07/14 10:39:29;;;;;;;;;;;18.80;99.90;;;;;;4935201;29;19986;-74
2021/07/14 10:41:56;;;;;;;;;;;19.00;99.90;;;;;;4914748;29;20429;-74
2021/07/14 10:44:23;;;;;;;;;;;19.00;99.90;;;;;;4915313;29;19961;-73
2021/07/14 10:46:55;;;;;;;;;;;19.00;99.90;;;;;;4915792;29;19931;-74
2021/07/14 10:49:24;;;;;;;;;;;18.90;99.90;;;;;;4915417;29;19975;-74
2021/07/14 10:51:51;;;;;;;;;;;19.00;99.90;;;;;;4919136;29;19933;-76
2021/07/14 10:54:20;;;;;;;;;;;18.90;99.90;;;;;;4925764;29;20025;-73
2021/07/14 10:56:47;;;;;;;;;;;18.80;99.90;;;;;;4935393;29;19965;-74
2021/07/14 10:59:21;;;;;;;;;;;18.70;99.90;;;;;;4911822;29;19934;-73
2021/07/14 11:01:52;;;;;;;;;;;18.80;99.90;;;;;;4921776;29;20041;-74
2021/07/14 11:04:26;;;;;;;;;;;18.80;99.90;;;;;;4915841;29;19933;-74
2021/07/14 11:06:56;;;;;;;;;;;18.80;99.90;;;;;;4932089;29;19930;-73
2021/07/14 11:09:42;;;;;;;;;;;18.90;99.90;;;;;;4932887;29;20435;-74
2021/07/14 11:12:27;;;;;;;;;;;19.10;99.90;;;;;;4929477;29;20045;-74
2021/07/14 11:14:59;;;;;;;;;;;19.10;99.90;;;;;;4931497;29;20344;-75
2021/07/14 11:17:30;;;;;;;;;;;18.90;99.90;;;;;;4919441;29;19931;-74
2021/07/14 11:20:07;;;;;;;;;;;19.00;99.90;;;;;;4939377;29;19927;-74
2021/07/14 11:22:34;;;;;;;;;;;18.90;99.90;;;;;;4921262;29;19927;-74
2021/07/14 11:25:00;;;;;;;;;;;18.80;99.90;;;;;;4921249;29;19989;-74
2021/07/14 11:27:27;;;;;;;;;;;19.00;99.90;;;;;;4932816;29;19927;-73
2021/07/14 11:29:55;;;;;;;;;;;19.30;99.90;;;;;;4934826;29;20018;-74
2021/07/14 11:32:34;;;;;;;;;;;19.40;99.90;;;;;;4929926;29;20396;-73
2021/07/14 11:35:07;;;;;;;;;;;19.50;99.90;;;;;;4933369;29;20021;-74
2021/07/14 11:38:02;;;;;;;;;;;19.80;99.90;;;;;;4917995;29;19937;-74
2021/07/14 11:40:35;;;;;;;;;;;20.00;99.90;;;;;;4934366;29;20026;-74
2021/07/14 11:43:11;;;;;;;;;;;20.00;99.90;;;;;;4932203;29;20025;-74
2021/07/14 11:45:47;;;;;;;;;;;19.90;99.90;;;;;;4932912;29;20297;-74
2021/07/14 11:48:24;;;;;;;;;;;19.80;99.90;;;;;;4929984;29;19937;-74
2021/07/14 11:50:57;;;;;;;;;;;19.40;99.90;;;;;;4932496;29;19937;-74
2021/07/14 11:53:39;;;;;;;;;;;19.00;99.90;;;;;;4932384;29;19931;-74
2021/07/14 11:56:12;;;;;;;;;;;18.80;99.90;;;;;;4923979;29;20018;-74
2021/07/14 11:58:42;;;;;;;;;;;18.60;99.90;;;;;;4946293;29;19977;-74
2021/07/14 12:01:18;;;;;;;;;;;18.50;99.90;;;;;;4953199;28;20017;-74
2021/07/14 12:04:07;;;;;;;;;;;18.50;99.90;;;;;;4936133;29;20460;-74
2021/07/14 12:06:34;;;;;;;;;;;18.50;99.90;;;;;;4952105;29;20025;-74
2021/07/14 12:09:01;;;;;;;;;;;18.50;99.90;;;;;;4951998;29;19931;-74
2021/07/14 12:11:32;;;;;;;;;;;18.50;99.90;;;;;;4951231;29;20409;-73
2021/07/14 12:13:59;;;;;;;;;;;18.60;99.90;;;;;;4945519;28;20345;-74
2021/07/14 12:16:31;;;;;;;;;;;18.60;99.90;;;;;;4952992;28;19965;-74
2021/07/14 12:19:03;;;;;;;;;;;18.70;99.90;;;;;;4952198;29;19926;-74
2021/07/14 12:21:33;;;;;;;;;;;18.70;99.90;;;;;;4935932;29;19927;-74
2021/07/14 12:24:05;;;;;;;;;;;18.70;99.90;;;;;;4956255;28;20021;-73
2021/07/14 12:26:32;;;;;;;;;;;18.80;99.90;;;;;;4956174;29;20025;-74
2021/07/14 12:29:22;;;;;;;;;;;18.80;99.90;;;;;;4957141;29;19926;-74
2021/07/14 12:31:54;;;;;;;;;;;19.00;99.90;;;;;;4955952;28;19926;-74
2021/07/14 12:34:27;;;;;;;;;;;19.00;99.90;;;;;;4956368;28;20484;-74
2021/07/14 12:36:59;;;;;;;;;;;19.00;99.90;;;;;;4955220;29;20423;-74
2021/07/14 12:39:27;;;;;;;;;;;19.00;99.90;;;;;;4953288;29;20018;-74
2021/07/14 12:42:03;;;;;;;;;;;19.10;99.90;;;;;;4930704;29;20041;-74
2021/07/14 12:44:35;;;;;;;;;;;19.20;99.90;;;;;;4922379;29;19966;-74
2021/07/14 12:47:09;;;;;;;;;;;19.20;99.90;;;;;;4937118;29;19950;-74
2021/07/14 12:49:41;;;;;;;;;;;19.30;99.90;;;;;;4936669;29;19926;-74
2021/07/14 12:52:17;;;;;;;;;;;19.20;99.90;;;;;;4934873;29;19949;-74
2021/07/14 12:54:53;;;;;;;;;;;19.30;99.90;;;;;;4908592;29;20345;-74
2021/07/14 12:57:25;;;;;;;;;;;19.40;99.90;;;;;;4917896;29;19962;-73
2021/07/14 12:59:53;;;;;;;;;;;19.30;99.90;;;;;;4917024;29;20009;-73
2021/07/14 13:02:20;;;;;;;;;;;19.20;99.90;;;;;;4916101;29;20009;-74
2021/07/14 13:04:53;;;;;;;;;;;19.10;99.90;;;;;;4932751;29;20368;-74
2021/07/14 13:07:29;;;;;;;;;;;19.10;99.90;;;;;;4933121;29;19931;-74
2021/07/14 13:10:05;;;;;;;;;;;19.00;99.90;;;;;;4927931;29;19927;-74
2021/07/14 13:12:37;;;;;;;;;;;19.00;99.90;;;;;;4913533;29;20025;-74
2021/07/14 13:15:11;;;;;;;;;;;19.00;99.90;;;;;;4912429;29;19928;-74
2021/07/14 13:17:38;;;;;;;;;;;19.10;99.90;;;;;;4914324;29;20406;-74
2021/07/14 13:20:13;;;;;;;;;;;19.00;99.90;;;;;;4914574;29;19938;-73
2021/07/14 13:22:40;;;;;;;;;;;19.10;99.90;;;;;;4913886;29;20029;-74
2021/07/14 13:25:12;;;;;;;;;;;19.10;99.90;;;;;;4916682;29;20013;-74
2021/07/14 13:27:39;;;;;;;;;;;19.20;99.90;;;;;;4916392;29;19933;-73
2021/07/14 13:30:19;;;;;;;;;;;19.10;99.90;;;;;;4917334;29;19958;-74
2021/07/14 13:33:14;;;;;;;;;;;19.10;99.90;;;;;;4899753;29;19933;-73
2021/07/14 13:35:48;;;;;;;;;;;19.00;99.90;;;;;;4911113;29;19927;-74
2021/07/14 13:38:28;;;;;;;;;;;19.10;99.90;;;;;;4916843;29;19937;-74
2021/07/14 13:41:11;;;;;;;;;;;19.10;99.90;;;;;;4900641;29;20457;-74
2021/07/14 13:43:50;;;;;;;;;;;19.10;99.90;;;;;;4915881;29;19927;-74
2021/07/14 13:46:29;;;;;;;;;;;19.10;99.90;;;;;;4916269;29;20000;-74
2021/07/14 13:49:09;;;;;;;;;;;19.20;99.90;;;;;;4917387;29;20034;-74
2021/07/14 13:51:49;;;;;;;;;;;19.10;99.90;;;;;;4919149;29;19931;-74
2021/07/14 13:54:24;;;;;;;;;;;19.10;99.90;;;;;;4915011;29;19927;-74
2021/07/14 13:56:58;;;;;;;;;;;19.10;99.90;;;;;;4915835;29;20047;-74
2021/07/14 13:59:37;;;;;;;;;;;19.20;99.90;;;;;;4917034;29;19973;-74
2021/07/14 14:02:12;;;;;;;;;;;19.20;99.90;;;;;;4915807;29;20398;-74
2021/07/14 14:04:43;;;;;;;;;;;19.20;99.90;;;;;;4916362;29;19935;-74
2021/07/14 14:07:14;;;;;;;;;;;19.20;99.90;;;;;;4900782;29;19927;-74
2021/07/14 14:09:48;;;;;;;;;;;19.20;99.90;;;;;;4914892;29;19927;-74
2021/07/14 14:12:21;;;;;;;;;;;19.30;99.90;;;;;;4914035;29;20480;-74
2021/07/14 14:14:48;;;;;;;;;;;19.20;99.90;;;;;;4915546;29;19962;-74
2021/07/14 14:17:21;;;;;;;;;;;19.20;99.90;;;;;;4914584;29;19931;-74
2021/07/14 14:19:53;;;;;;;;;;;19.20;99.90;;;;;;4915415;29;20030;-74
2021/07/14 14:22:27;;;;;;;;;;;19.30;99.90;;;;;;4946371;29;20017;-74
2021/07/14 14:25:04;;;;;;;;;;;19.30;99.90;;;;;;4938041;29;19958;-74
2021/07/14 14:27:49;;;;;;;;;;;19.20;99.90;;;;;;4954557;28;19926;-74
2021/07/14 14:30:22;;;;;;;;;;;19.10;99.90;;;;;;4937866;29;20025;-74
2021/07/14 14:32:54;;;;;;;;;;;19.00;99.90;;;;;;4952012;29;19926;-74
2021/07/14 14:35:23;;;;;;;;;;;19.00;99.90;;;;;;4953249;28;20029;-74
2021/07/14 14:37:55;;;;;;;;;;;19.10;99.90;;;;;;4953597;28;19930;-74
2021/07/14 14:40:23;;;;;;;;;;;19.10;99.90;;;;;;4954689;28;19927;-74
2021/07/14 14:42:54;;;;;;;;;;;19.30;99.90;;;;;;4953858;28;20037;-74
2021/07/14 14:45:26;;;;;;;;;;;19.30;99.90;;;;;;4937878;29;20378;-74
2021/07/14 14:47:58;;;;;;;;;;;19.40;99.90;;;;;;4938332;29;19926;-74
2021/07/14 14:50:30;;;;;;;;;;;19.60;99.90;;;;;;4937998;29;19926;-74
2021/07/14 14:53:02;;;;;;;;;;;19.60;99.90;;;;;;4951717;28;19932;-74